If you wish to contribute or participate in the discussions about articles you are invited to join SKYbrary as a registered user

 Actions

Châlons-Vatry Air Base

From SKYbrary Wiki

LFOK
Airport
ICAO: LFOK – IATA: XCR
Summary
Name Châlons-Vatry Air Base
Region Europe
Territory France FR.gif
Location , Champagne-Ardenne
Serving Chalons
Elevation 178.918 m
587 ft
587 ft178.918 m
Type medium airport
Coordinates 48° 46' 33.86" N, 4° 11' 4.17" E
Runways
Designator Length Width Surface ROPS
10/28 3860 m12,664.042 ft
45 m147.638 ft
CON yes/yes


METAR
Observation LFOK 121030Z AUTO 20016KT 9999 OVC010 03/02 Q1004 BECMG SCT013 BKN020
Station Chalons-Vatry
Date/Time 12 December 2019 10:30:00
Wind direction 200°
Wind speed 16 kts
Lowest cloud amount overcast
Temperature 3°C
Dew point 2°C
Humidity 93%
QNH 1004 hPa
Weather condition n/a